KJST/JST METAR and TAF weather

Enter ICAO airport designator
Station Type Date Time Source
KJST METAR 2022/05/23 13:54 UTC NOAA

KJST 231354Z AUTO 04006KT 10SM CLR 12/07 A3028 RMK AO2 SLP257 T01170067 TSNO


Station Type Date Time Source
KJST Decoded METAR 2022/05/23 13:54 UTC NOAA

JOHNSTOWN-CAMBRIA CO AIRPORT , PA, United States (KJST) 40-19N 078-50W 694M
May 23, 2022 - 09:54 AM EDT / 2022.05.23 1354 UTC
Wind: from the NE (040 degrees) at 7 MPH (6 KT):0
Visibility: 10 mile(s):0
Sky conditions: clear
Temperature: 53.1 F (11.7 C)
Dew Point: 44.1 F (6.7 C)
Relative Humidity: 71%
Pressure (altimeter): 30.28 in. Hg (1025 hPa)
ob: KJST 231354Z AUTO 04006KT 10SM CLR 12/07 A3028 RMK AO2 SLP257 T01170067 TSNO
cycle: 14

Station Type Date Time Source
KJST TAF 2022/05/23 13:27 UTC NOAA

TAF
AMD KJST 231325Z 2313/2412 06005KT P6SM SCT012 BKN100
FM232000 06006KT P6SM VCSH OVC090
FM240000 07006KT P6SM OVC070
FM240600 10004KT P6SM OVC030

Example: see airport list